sensor_id;sensor_type;location;lat;lon;timestamp;temperature;humidity
51613;DHT22;37694;51.748;14.326;2023-12-04T00:01:00;22.60;41.40
51613;DHT22;37694;51.748;14.326;2023-12-04T00:03:26;22.60;41.50
51613;DHT22;37694;51.748;14.326;2023-12-04T00:05:51;22.60;41.40
51613;DHT22;37694;51.748;14.326;2023-12-04T00:08:17;22.50;41.30
51613;DHT22;37694;51.748;14.326;2023-12-04T00:10:43;22.50;41.40
51613;DHT22;37694;51.748;14.326;2023-12-04T00:13:08;22.50;41.40
51613;DHT22;37694;51.748;14.326;2023-12-04T00:15:34;22.50;41.30
51613;DHT22;37694;51.748;14.326;2023-12-04T00:18:00;22.50;41.30
51613;DHT22;37694;51.748;14.326;2023-12-04T00:20:25;22.50;41.20
51613;DHT22;37694;51.748;14.326;2023-12-04T00:22:51;22.40;41.20
51613;DHT22;37694;51.748;14.326;2023-12-04T00:25:17;22.40;41.20
51613;DHT22;37694;51.748;14.326;2023-12-04T00:27:42;22.30;41.30
51613;DHT22;37694;51.748;14.326;2023-12-04T00:30:08;22.30;41.30
51613;DHT22;37694;51.748;14.326;2023-12-04T00:32:34;22.30;41.20
51613;DHT22;37694;51.748;14.326;2023-12-04T00:35:00;22.30;41.30
51613;DHT22;37694;51.748;14.326;2023-12-04T00:37:26;22.30;41.20
51613;DHT22;37694;51.748;14.326;2023-12-04T00:39:52;22.30;41.30
51613;DHT22;37694;51.748;14.326;2023-12-04T00:42:18;22.20;41.20
51613;DHT22;37694;51.748;14.326;2023-12-04T00:44:44;22.20;41.30
51613;DHT22;37694;51.748;14.326;2023-12-04T00:47:09;22.20;41.20
51613;DHT22;37694;51.748;14.326;2023-12-04T00:49:36;22.20;41.20
51613;DHT22;37694;51.748;14.326;2023-12-04T00:52:02;22.20;41.10
51613;DHT22;37694;51.748;14.326;2023-12-04T00:54:27;22.20;41.10
51613;DHT22;37694;51.748;14.326;2023-12-04T00:56:53;22.20;41.30
51613;DHT22;37694;51.748;14.326;2023-12-04T00:59:19;22.10;41.10
51613;DHT22;37694;51.748;14.326;2023-12-04T01:01:44;22.10;41.00
51613;DHT22;37694;51.748;14.326;2023-12-04T01:04:10;22.10;41.00
51613;DHT22;37694;51.748;14.326;2023-12-04T01:06:36;22.10;41.10
51613;DHT22;37694;51.748;14.326;2023-12-04T01:09:01;22.10;41.00
51613;DHT22;37694;51.748;14.326;2023-12-04T01:11:27;22.00;41.00
51613;DHT22;37694;51.748;14.326;2023-12-04T01:13:53;22.00;41.00
51613;DHT22;37694;51.748;14.326;2023-12-04T01:16:19;22.00;40.90
51613;DHT22;37694;51.748;14.326;2023-12-04T01:18:44;22.00;41.00
51613;DHT22;37694;51.748;14.326;2023-12-04T01:21:10;22.00;41.20
51613;DHT22;37694;51.748;14.326;2023-12-04T01:23:36;22.00;41.00
51613;DHT22;37694;51.748;14.326;2023-12-04T01:26:05;21.90;41.00
51613;DHT22;37694;51.748;14.326;2023-12-04T01:28:31;22.00;41.00
51613;DHT22;37694;51.748;14.326;2023-12-04T01:30:57;22.00;41.00
51613;DHT22;37694;51.748;14.326;2023-12-04T01:33:22;21.90;40.90
51613;DHT22;37694;51.748;14.326;2023-12-04T01:35:48;21.90;41.20
51613;DHT22;37694;51.748;14.326;2023-12-04T01:38:14;21.90;41.00
51613;DHT22;37694;51.748;14.326;2023-12-04T01:40:39;21.90;41.10
51613;DHT22;37694;51.748;14.326;2023-12-04T01:43:05;21.90;40.90
51613;DHT22;37694;51.748;14.326;2023-12-04T01:45:31;21.90;40.90
51613;DHT22;37694;51.748;14.326;2023-12-04T01:47:57;21.80;40.90
51613;DHT22;37694;51.748;14.326;2023-12-04T01:50:24;21.80;40.90
51613;DHT22;37694;51.748;14.326;2023-12-04T01:52:51;21.80;40.80
51613;DHT22;37694;51.748;14.326;2023-12-04T01:55:17;21.80;40.80
51613;DHT22;37694;51.748;14.326;2023-12-04T01:57:43;21.70;40.70
51613;DHT22;37694;51.748;14.326;2023-12-04T02:00:10;21.70;40.80
51613;DHT22;37694;51.748;14.326;2023-12-04T02:02:40;21.70;40.90
51613;DHT22;37694;51.748;14.326;2023-12-04T02:05:11;21.70;40.80
51613;DHT22;37694;51.748;14.326;2023-12-04T02:07:37;21.70;40.90
51613;DHT22;37694;51.748;14.326;2023-12-04T02:10:04;21.70;40.80
51613;DHT22;37694;51.748;14.326;2023-12-04T02:12:30;21.70;40.80
51613;DHT22;37694;51.748;14.326;2023-12-04T02:14:56;21.70;40.70
51613;DHT22;37694;51.748;14.326;2023-12-04T02:17:23;21.70;40.80
51613;DHT22;37694;51.748;14.326;2023-12-04T02:19:49;21.70;40.80
51613;DHT22;37694;51.748;14.326;2023-12-04T02:22:15;21.60;40.70
51613;DHT22;37694;51.748;14.326;2023-12-04T02:24:42;21.60;40.70
51613;DHT22;37694;51.748;14.326;2023-12-04T02:27:22;21.60;40.70
51613;DHT22;37694;51.748;14.326;2023-12-04T02:29:56;21.60;40.70
51613;DHT22;37694;51.748;14.326;2023-12-04T02:32:23;21.60;40.60
51613;DHT22;37694;51.748;14.326;2023-12-04T02:34:50;21.50;40.60
51613;DHT22;37694;51.748;14.326;2023-12-04T02:37:17;21.50;40.60
51613;DHT22;37694;51.748;14.326;2023-12-04T02:39:44;21.50;40.70
51613;DHT22;37694;51.748;14.326;2023-12-04T02:42:11;21.50;40.70
51613;DHT22;37694;51.748;14.326;2023-12-04T02:44:39;21.60;40.90
51613;DHT22;37694;51.748;14.326;2023-12-04T02:47:05;21.50;40.60
51613;DHT22;37694;51.748;14.326;2023-12-04T02:49:30;21.50;40.60
51613;DHT22;37694;51.748;14.326;2023-12-04T02:51:56;21.40;40.70
51613;DHT22;37694;51.748;14.326;2023-12-04T02:54:22;21.40;40.70
51613;DHT22;37694;51.748;14.326;2023-12-04T02:56:49;21.40;40.70
51613;DHT22;37694;51.748;14.326;2023-12-04T02:59:14;21.40;40.60
51613;DHT22;37694;51.748;14.326;2023-12-04T03:01:40;21.40;40.70
51613;DHT22;37694;51.748;14.326;2023-12-04T03:04:06;21.40;40.70
51613;DHT22;37694;51.748;14.326;2023-12-04T03:06:32;21.40;40.70
51613;DHT22;37694;51.748;14.326;2023-12-04T03:08:58;21.40;40.60
51613;DHT22;37694;51.748;14.326;2023-12-04T03:11:25;21.40;40.60
51613;DHT22;37694;51.748;14.326;2023-12-04T03:13:51;21.30;40.50
51613;DHT22;37694;51.748;14.326;2023-12-04T03:16:17;21.30;40.60
51613;DHT22;37694;51.748;14.326;2023-12-04T03:18:43;21.30;40.60
51613;DHT22;37694;51.748;14.326;2023-12-04T03:21:09;21.30;40.60
51613;DHT22;37694;51.748;14.326;2023-12-04T03:23:34;21.30;40.60
51613;DHT22;37694;51.748;14.326;2023-12-04T03:26:00;21.30;40.60
51613;DHT22;37694;51.748;14.326;2023-12-04T03:28:26;21.30;40.70
51613;DHT22;37694;51.748;14.326;2023-12-04T03:30:51;21.20;40.60
51613;DHT22;37694;51.748;14.326;2023-12-04T03:33:17;21.20;40.80
51613;DHT22;37694;51.748;14.326;2023-12-04T03:35:43;21.20;40.60
51613;DHT22;37694;51.748;14.326;2023-12-04T03:38:09;21.20;40.70
51613;DHT22;37694;51.748;14.326;2023-12-04T03:40:35;21.20;40.60
51613;DHT22;37694;51.748;14.326;2023-12-04T03:43:00;21.10;40.50
51613;DHT22;37694;51.748;14.326;2023-12-04T03:45:26;21.20;40.60
51613;DHT22;37694;51.748;14.326;2023-12-04T03:47:52;21.20;40.70
51613;DHT22;37694;51.748;14.326;2023-12-04T03:50:18;21.10;40.60
51613;DHT22;37694;51.748;14.326;2023-12-04T03:52:43;21.10;40.60
51613;DHT22;37694;51.748;14.326;2023-12-04T03:55:09;21.10;40.60
51613;DHT22;37694;51.748;14.326;2023-12-04T03:57:35;21.10;40.60
51613;DHT22;37694;51.748;14.326;2023-12-04T04:00:00;21.10;40.50
51613;DHT22;37694;51.748;14.326;2023-12-04T04:02:26;21.10;40.50
51613;DHT22;37694;51.748;14.326;2023-12-04T04:04:52;21.10;40.60
51613;DHT22;37694;51.748;14.326;2023-12-04T04:07:18;21.10;40.40
51613;DHT22;37694;51.748;14.326;2023-12-04T04:09:43;21.00;40.40
51613;DHT22;37694;51.748;14.326;2023-12-04T04:12:09;21.00;40.50
51613;DHT22;37694;51.748;14.326;2023-12-04T04:14:35;21.00;40.80
51613;DHT22;37694;51.748;14.326;2023-12-04T04:17:00;21.00;40.70
51613;DHT22;37694;51.748;14.326;2023-12-04T04:19:26;21.00;40.40
51613;DHT22;37694;51.748;14.326;2023-12-04T04:21:52;21.00;40.40
51613;DHT22;37694;51.748;14.326;2023-12-04T04:24:17;21.00;40.50
51613;DHT22;37694;51.748;14.326;2023-12-04T04:26:43;21.00;41.40
51613;DHT22;37694;51.748;14.326;2023-12-04T04:29:09;21.00;41.20
51613;DHT22;37694;51.748;14.326;2023-12-04T04:31:35;21.00;40.80
51613;DHT22;37694;51.748;14.326;2023-12-04T04:34:00;21.10;41.20
51613;DHT22;37694;51.748;14.326;2023-12-04T04:36:26;21.10;40.80
51613;DHT22;37694;51.748;14.326;2023-12-04T04:38:52;21.10;40.60
51613;DHT22;37694;51.748;14.326;2023-12-04T04:41:18;21.20;40.50
51613;DHT22;37694;51.748;14.326;2023-12-04T04:43:43;21.30;40.40
51613;DHT22;37694;51.748;14.326;2023-12-04T04:46:09;21.40;40.20
51613;DHT22;37694;51.748;14.326;2023-12-04T04:48:35;21.50;40.10
51613;DHT22;37694;51.748;14.326;2023-12-04T04:51:00;21.60;39.90
51613;DHT22;37694;51.748;14.326;2023-12-04T04:53:26;21.80;40.70
51613;DHT22;37694;51.748;14.326;2023-12-04T04:55:52;21.90;39.70
51613;DHT22;37694;51.748;14.326;2023-12-04T04:58:17;22.00;39.60
51613;DHT22;37694;51.748;14.326;2023-12-04T05:00:44;22.10;39.50
51613;DHT22;37694;51.748;14.326;2023-12-04T05:03:10;22.20;39.40
51613;DHT22;37694;51.748;14.326;2023-12-04T05:05:36;22.20;39.30
51613;DHT22;37694;51.748;14.326;2023-12-04T05:08:02;22.30;39.20
51613;DHT22;37694;51.748;14.326;2023-12-04T05:10:27;22.40;39.10
51613;DHT22;37694;51.748;14.326;2023-12-04T05:12:53;22.50;39.10
51613;DHT22;37694;51.748;14.326;2023-12-04T05:15:19;22.60;39.00
51613;DHT22;37694;51.748;14.326;2023-12-04T05:17:44;22.70;38.90
51613;DHT22;37694;51.748;14.326;2023-12-04T05:20:10;22.80;39.60
51613;DHT22;37694;51.748;14.326;2023-12-04T05:22:36;22.90;38.70
51613;DHT22;37694;51.748;14.326;2023-12-04T05:25:01;23.00;38.60
51613;DHT22;37694;51.748;14.326;2023-12-04T05:27:27;23.00;38.40
51613;DHT22;37694;51.748;14.326;2023-12-04T05:29:53;23.10;38.40
51613;DHT22;37694;51.748;14.326;2023-12-04T05:32:18;23.20;38.40
51613;DHT22;37694;51.748;14.326;2023-12-04T05:34:44;23.30;38.40
51613;DHT22;37694;51.748;14.326;2023-12-04T05:37:10;23.30;38.30
51613;DHT22;37694;51.748;14.326;2023-12-04T05:39:35;23.40;38.20
51613;DHT22;37694;51.748;14.326;2023-12-04T05:42:01;23.40;38.10
51613;DHT22;37694;51.748;14.326;2023-12-04T05:44:26;23.50;38.10
51613;DHT22;37694;51.748;14.326;2023-12-04T05:46:52;23.50;38.00
51613;DHT22;37694;51.748;14.326;2023-12-04T05:49:18;23.60;38.10
51613;DHT22;37694;51.748;14.326;2023-12-04T05:51:43;23.60;38.00
51613;DHT22;37694;51.748;14.326;2023-12-04T05:54:09;23.60;38.10
51613;DHT22;37694;51.748;14.326;2023-12-04T05:56:35;23.60;38.00
51613;DHT22;37694;51.748;14.326;2023-12-04T05:59:00;23.60;38.10
51613;DHT22;37694;51.748;14.326;2023-12-04T06:01:27;23.60;38.30
51613;DHT22;37694;51.748;14.326;2023-12-04T06:03:53;23.50;38.20
51613;DHT22;37694;51.748;14.326;2023-12-04T06:06:18;23.50;38.40
51613;DHT22;37694;51.748;14.326;2023-12-04T06:08:44;23.50;38.60
51613;DHT22;37694;51.748;14.326;2023-12-04T06:11:10;23.50;38.80
51613;DHT22;37694;51.748;14.326;2023-12-04T06:13:35;23.40;38.90
51613;DHT22;37694;51.748;14.326;2023-12-04T06:16:01;23.40;39.20
51613;DHT22;37694;51.748;14.326;2023-12-04T06:18:27;23.30;39.30
51613;DHT22;37694;51.748;14.326;2023-12-04T06:20:53;23.30;39.50
51613;DHT22;37694;51.748;14.326;2023-12-04T06:23:18;23.30;39.80
51613;DHT22;37694;51.748;14.326;2023-12-04T06:25:44;23.30;40.10
51613;DHT22;37694;51.748;14.326;2023-12-04T06:28:10;23.20;39.80
51613;DHT22;37694;51.748;14.326;2023-12-04T06:30:36;23.20;40.30
51613;DHT22;37694;51.748;14.326;2023-12-04T06:33:02;23.20;40.40
51613;DHT22;37694;51.748;14.326;2023-12-04T06:35:28;23.20;40.60
51613;DHT22;37694;51.748;14.326;2023-12-04T06:37:54;23.10;41.30
51613;DHT22;37694;51.748;14.326;2023-12-04T06:40:21;23.10;41.50
51613;DHT22;37694;51.748;14.326;2023-12-04T06:42:47;23.10;41.60
51613;DHT22;37694;51.748;14.326;2023-12-04T06:45:13;23.10;41.90
51613;DHT22;37694;51.748;14.326;2023-12-04T06:47:40;23.20;42.00
51613;DHT22;37694;51.748;14.326;2023-12-04T06:50:08;23.20;42.20
51613;DHT22;37694;51.748;14.326;2023-12-04T06:52:34;23.30;42.20
51613;DHT22;37694;51.748;14.326;2023-12-04T06:55:00;23.30;41.50
51613;DHT22;37694;51.748;14.326;2023-12-04T06:57:25;23.30;41.90
51613;DHT22;37694;51.748;14.326;2023-12-04T06:59:51;23.30;41.80
51613;DHT22;37694;51.748;14.326;2023-12-04T07:02:17;23.30;41.70
51613;DHT22;37694;51.748;14.326;2023-12-04T07:04:42;23.30;41.40
51613;DHT22;37694;51.748;14.326;2023-12-04T07:07:08;23.20;41.70
51613;DHT22;37694;51.748;14.326;2023-12-04T07:09:34;23.20;42.00
51613;DHT22;37694;51.748;14.326;2023-12-04T07:12:01;23.10;42.10
51613;DHT22;37694;51.748;14.326;2023-12-04T07:14:28;23.10;42.20
51613;DHT22;37694;51.748;14.326;2023-12-04T07:16:53;23.10;42.50
51613;DHT22;37694;51.748;14.326;2023-12-04T07:19:19;23.10;42.40
51613;DHT22;37694;51.748;14.326;2023-12-04T07:21:45;23.00;42.50
51613;DHT22;37694;51.748;14.326;2023-12-04T07:24:11;23.00;42.40
51613;DHT22;37694;51.748;14.326;2023-12-04T07:26:37;23.00;42.20
51613;DHT22;37694;51.748;14.326;2023-12-04T07:29:03;23.00;41.90
51613;DHT22;37694;51.748;14.326;2023-12-04T07:31:29;23.00;41.90
51613;DHT22;37694;51.748;14.326;2023-12-04T07:33:55;23.00;41.90
51613;DHT22;37694;51.748;14.326;2023-12-04T07:36:21;23.00;41.80
51613;DHT22;37694;51.748;14.326;2023-12-04T07:38:47;23.00;41.80
51613;DHT22;37694;51.748;14.326;2023-12-04T07:41:13;22.90;41.60
51613;DHT22;37694;51.748;14.326;2023-12-04T07:43:39;22.90;41.70
51613;DHT22;37694;51.748;14.326;2023-12-04T07:46:05;22.90;41.60
51613;DHT22;37694;51.748;14.326;2023-12-04T07:48:31;22.90;41.50
51613;DHT22;37694;51.748;14.326;2023-12-04T07:50:57;22.90;41.60
51613;DHT22;37694;51.748;14.326;2023-12-04T07:53:23;22.80;41.20
51613;DHT22;37694;51.748;14.326;2023-12-04T07:55:49;22.80;41.20
51613;DHT22;37694;51.748;14.326;2023-12-04T07:58:17;22.80;41.20
51613;DHT22;37694;51.748;14.326;2023-12-04T08:00:43;22.80;41.20
51613;DHT22;37694;51.748;14.326;2023-12-04T08:03:09;22.80;41.20
51613;DHT22;37694;51.748;14.326;2023-12-04T08:05:35;22.80;41.30
51613;DHT22;37694;51.748;14.326;2023-12-04T08:08:00;22.80;41.50
51613;DHT22;37694;51.748;14.326;2023-12-04T08:10:26;22.70;41.40
51613;DHT22;37694;51.748;14.326;2023-12-04T08:12:52;22.70;41.30
51613;DHT22;37694;51.748;14.326;2023-12-04T08:15:18;22.70;41.50
51613;DHT22;37694;51.748;14.326;2023-12-04T08:17:43;22.70;41.50
51613;DHT22;37694;51.748;14.326;2023-12-04T08:20:09;22.70;42.00
51613;DHT22;37694;51.748;14.326;2023-12-04T08:22:42;22.70;42.10
51613;DHT22;37694;51.748;14.326;2023-12-04T08:25:10;22.70;41.70
51613;DHT22;37694;51.748;14.326;2023-12-04T08:27:36;22.60;41.50
51613;DHT22;37694;51.748;14.326;2023-12-04T08:30:04;22.60;41.80
51613;DHT22;37694;51.748;14.326;2023-12-04T08:32:30;22.60;41.70
51613;DHT22;37694;51.748;14.326;2023-12-04T08:34:56;22.60;41.60
51613;DHT22;37694;51.748;14.326;2023-12-04T08:37:21;22.60;41.60
51613;DHT22;37694;51.748;14.326;2023-12-04T08:39:47;22.60;41.60
51613;DHT22;37694;51.748;14.326;2023-12-04T08:42:13;22.60;41.70
51613;DHT22;37694;51.748;14.326;2023-12-04T08:44:38;22.60;41.70
51613;DHT22;37694;51.748;14.326;2023-12-04T08:47:05;22.60;41.80
51613;DHT22;37694;51.748;14.326;2023-12-04T08:49:31;22.50;41.80
51613;DHT22;37694;51.748;14.326;2023-12-04T08:51:58;22.50;41.80
51613;DHT22;37694;51.748;14.326;2023-12-04T08:54:24;22.50;42.00
51613;DHT22;37694;51.748;14.326;2023-12-04T08:56:50;22.60;42.30
51613;DHT22;37694;51.748;14.326;2023-12-04T08:59:16;22.60;42.30
51613;DHT22;37694;51.748;14.326;2023-12-04T09:01:42;22.60;42.50
51613;DHT22;37694;51.748;14.326;2023-12-04T09:04:09;22.60;42.30
51613;DHT22;37694;51.748;14.326;2023-12-04T09:06:35;22.60;42.20
51613;DHT22;37694;51.748;14.326;2023-12-04T09:09:01;22.70;42.30
51613;DHT22;37694;51.748;14.326;2023-12-04T09:11:28;22.70;42.10
51613;DHT22;37694;51.748;14.326;2023-12-04T09:13:54;22.70;42.00
51613;DHT22;37694;51.748;14.326;2023-12-04T09:16:20;22.70;42.10
51613;DHT22;37694;51.748;14.326;2023-12-04T09:18:45;22.70;42.10
51613;DHT22;37694;51.748;14.326;2023-12-04T09:21:12;22.70;41.90
51613;DHT22;37694;51.748;14.326;2023-12-04T09:23:37;22.70;41.70
51613;DHT22;37694;51.748;14.326;2023-12-04T09:26:03;22.70;41.60
51613;DHT22;37694;51.748;14.326;2023-12-04T09:28:29;22.70;41.50
51613;DHT22;37694;51.748;14.326;2023-12-04T09:30:55;22.60;41.50
51613;DHT22;37694;51.748;14.326;2023-12-04T09:33:20;22.70;41.70
51613;DHT22;37694;51.748;14.326;2023-12-04T09:35:46;22.60;41.60
51613;DHT22;37694;51.748;14.326;2023-12-04T09:38:11;22.60;41.50
51613;DHT22;37694;51.748;14.326;2023-12-04T09:40:37;22.60;41.40
51613;DHT22;37694;51.748;14.326;2023-12-04T09:43:03;22.60;41.30
51613;DHT22;37694;51.748;14.326;2023-12-04T09:45:32;22.60;41.20
51613;DHT22;37694;51.748;14.326;2023-12-04T09:47:58;22.60;41.10
51613;DHT22;37694;51.748;14.326;2023-12-04T09:50:25;22.50;41.00
51613;DHT22;37694;51.748;14.326;2023-12-04T09:52:51;22.50;41.00
51613;DHT22;37694;51.748;14.326;2023-12-04T09:55:20;22.50;41.00
51613;DHT22;37694;51.748;14.326;2023-12-04T09:57:46;22.50;41.00
51613;DHT22;37694;51.748;14.326;2023-12-04T10:00:13;22.50;40.90
51613;DHT22;37694;51.748;14.326;2023-12-04T10:02:42;22.50;40.90
51613;DHT22;37694;51.748;14.326;2023-12-04T10:05:09;22.40;40.80
51613;DHT22;37694;51.748;14.326;2023-12-04T10:07:35;22.40;40.70
51613;DHT22;37694;51.748;14.326;2023-12-04T10:10:02;22.40;40.70
51613;DHT22;37694;51.748;14.326;2023-12-04T10:12:31;22.40;40.60
51613;DHT22;37694;51.748;14.326;2023-12-04T10:15:06;22.40;40.60
51613;DHT22;37694;51.748;14.326;2023-12-04T10:17:33;22.30;40.50
51613;DHT22;37694;51.748;14.326;2023-12-04T10:20:19;22.30;40.70
51613;DHT22;37694;51.748;14.326;2023-12-04T10:22:57;22.30;40.50
51613;DHT22;37694;51.748;14.326;2023-12-04T10:25:29;22.30;40.50
51613;DHT22;37694;51.748;14.326;2023-12-04T10:28:10;22.30;40.40
51613;DHT22;37694;51.748;14.326;2023-12-04T10:30:36;22.30;40.40
51613;DHT22;37694;51.748;14.326;2023-12-04T10:33:03;22.20;40.40
51613;DHT22;37694;51.748;14.326;2023-12-04T10:35:31;22.20;40.40
51613;DHT22;37694;51.748;14.326;2023-12-04T10:37:57;22.20;40.40
51613;DHT22;37694;51.748;14.326;2023-12-04T10:40:28;22.20;40.40
51613;DHT22;37694;51.748;14.326;2023-12-04T10:43:20;22.20;41.10
51613;DHT22;37694;51.748;14.326;2023-12-04T10:45:47;22.20;40.30
51613;DHT22;37694;51.748;14.326;2023-12-04T10:48:15;22.20;40.30
51613;DHT22;37694;51.748;14.326;2023-12-04T10:50:43;22.20;40.30
51613;DHT22;37694;51.748;14.326;2023-12-04T10:53:11;22.10;40.30
51613;DHT22;37694;51.748;14.326;2023-12-04T10:55:37;22.10;40.30
51613;DHT22;37694;51.748;14.326;2023-12-04T10:58:09;22.10;40.30
51613;DHT22;37694;51.748;14.326;2023-12-04T11:00:36;22.10;40.30
51613;DHT22;37694;51.748;14.326;2023-12-04T11:03:08;22.10;40.30
51613;DHT22;37694;51.748;14.326;2023-12-04T11:05:39;22.10;40.30
51613;DHT22;37694;51.748;14.326;2023-12-04T11:08:06;22.10;40.40
51613;DHT22;37694;51.748;14.326;2023-12-04T11:10:33;22.00;40.30
51613;DHT22;37694;51.748;14.326;2023-12-04T11:13:10;22.00;40.30
51613;DHT22;37694;51.748;14.326;2023-12-04T11:15:40;22.00;40.30
51613;DHT22;37694;51.748;14.326;2023-12-04T11:18:13;22.00;40.30
51613;DHT22;37694;51.748;14.326;2023-12-04T11:20:46;22.00;40.30
51613;DHT22;37694;51.748;14.326;2023-12-04T11:23:13;22.00;40.20
51613;DHT22;37694;51.748;14.326;2023-12-04T11:25:41;21.90;40.30
51613;DHT22;37694;51.748;14.326;2023-12-04T11:28:08;21.90;40.40
51613;DHT22;37694;51.748;14.326;2023-12-04T11:30:34;21.90;40.30
51613;DHT22;37694;51.748;14.326;2023-12-04T11:33:01;21.90;40.20
51613;DHT22;37694;51.748;14.326;2023-12-04T11:35:26;21.90;40.10
51613;DHT22;37694;51.748;14.326;2023-12-04T11:37:53;21.90;40.10
51613;DHT22;37694;51.748;14.326;2023-12-04T11:40:19;21.90;40.10
51613;DHT22;37694;51.748;14.326;2023-12-04T11:42:45;21.80;40.00
51613;DHT22;37694;51.748;14.326;2023-12-04T11:45:18;21.80;40.10
51613;DHT22;37694;51.748;14.326;2023-12-04T11:47:57;21.80;41.00
51613;DHT22;37694;51.748;14.326;2023-12-04T11:50:26;21.80;40.00
51613;DHT22;37694;51.748;14.326;2023-12-04T11:52:54;21.80;40.20
51613;DHT22;37694;51.748;14.326;2023-12-04T11:55:21;21.80;40.20
51613;DHT22;37694;51.748;14.326;2023-12-04T11:57:50;21.80;40.10
51613;DHT22;37694;51.748;14.326;2023-12-04T12:02:48;21.80;40.00
51613;DHT22;37694;51.748;14.326;2023-12-04T12:05:15;21.70;40.00
51613;DHT22;37694;51.748;14.326;2023-12-04T12:07:41;21.70;39.90
51613;DHT22;37694;51.748;14.326;2023-12-04T12:10:07;21.70;39.80
51613;DHT22;37694;51.748;14.326;2023-12-04T12:12:35;21.70;39.90
51613;DHT22;37694;51.748;14.326;2023-12-04T12:15:02;21.70;39.90
51613;DHT22;37694;51.748;14.326;2023-12-04T12:17:27;21.70;39.90
51613;DHT22;37694;51.748;14.326;2023-12-04T12:19:54;21.70;39.80
51613;DHT22;37694;51.748;14.326;2023-12-04T12:22:22;21.60;39.80
51613;DHT22;37694;51.748;14.326;2023-12-04T12:24:48;21.60;39.90
51613;DHT22;37694;51.748;14.326;2023-12-04T12:27:14;21.60;39.80
51613;DHT22;37694;51.748;14.326;2023-12-04T12:29:39;21.60;39.80
51613;DHT22;37694;51.748;14.326;2023-12-04T12:32:05;21.60;39.90
51613;DHT22;37694;51.748;14.326;2023-12-04T12:34:31;21.60;39.90
51613;DHT22;37694;51.748;14.326;2023-12-04T12:37:02;21.60;39.90
51613;DHT22;37694;51.748;14.326;2023-12-04T12:39:29;21.50;39.90
51613;DHT22;37694;51.748;14.326;2023-12-04T12:41:55;21.50;39.90
51613;DHT22;37694;51.748;14.326;2023-12-04T12:44:21;21.50;39.90
51613;DHT22;37694;51.748;14.326;2023-12-04T12:46:51;21.50;39.90
51613;DHT22;37694;51.748;14.326;2023-12-04T12:49:20;21.50;39.90
51613;DHT22;37694;51.748;14.326;2023-12-04T12:51:46;21.50;39.90
51613;DHT22;37694;51.748;14.326;2023-12-04T12:54:12;21.50;39.90
51613;DHT22;37694;51.748;14.326;2023-12-04T12:56:38;21.50;40.10
51613;DHT22;37694;51.748;14.326;2023-12-04T12:59:04;21.50;40.40
51613;DHT22;37694;51.748;14.326;2023-12-04T13:01:31;21.50;40.50
51613;DHT22;37694;51.748;14.326;2023-12-04T13:03:57;21.60;40.30
51613;DHT22;37694;51.748;14.326;2023-12-04T13:06:23;21.70;40.40
51613;DHT22;37694;51.748;14.326;2023-12-04T13:08:49;21.90;40.30
51613;DHT22;37694;51.748;14.326;2023-12-04T13:11:14;21.90;40.20
51613;DHT22;37694;51.748;14.326;2023-12-04T13:13:40;22.10;40.20
51613;DHT22;37694;51.748;14.326;2023-12-04T13:16:06;22.20;40.30
51613;DHT22;37694;51.748;14.326;2023-12-04T13:18:32;22.30;40.10
51613;DHT22;37694;51.748;14.326;2023-12-04T13:21:01;22.40;40.00
51613;DHT22;37694;51.748;14.326;2023-12-04T13:23:27;22.50;40.10
51613;DHT22;37694;51.748;14.326;2023-12-04T13:25:53;22.60;40.10
51613;DHT22;37694;51.748;14.326;2023-12-04T13:28:21;22.60;39.90
51613;DHT22;37694;51.748;14.326;2023-12-04T13:30:47;22.70;39.90
51613;DHT22;37694;51.748;14.326;2023-12-04T13:33:13;22.70;39.80
51613;DHT22;37694;51.748;14.326;2023-12-04T13:35:39;22.80;39.70
51613;DHT22;37694;51.748;14.326;2023-12-04T13:38:05;22.80;39.80
51613;DHT22;37694;51.748;14.326;2023-12-04T13:40:41;22.90;39.70
51613;DHT22;37694;51.748;14.326;2023-12-04T13:43:06;22.90;39.70
51613;DHT22;37694;51.748;14.326;2023-12-04T13:45:51;22.90;39.70
51613;DHT22;37694;51.748;14.326;2023-12-04T13:48:18;22.90;39.70
51613;DHT22;37694;51.748;14.326;2023-12-04T13:50:46;22.90;39.70
51613;DHT22;37694;51.748;14.326;2023-12-04T13:53:12;22.90;39.70
51613;DHT22;37694;51.748;14.326;2023-12-04T13:55:40;22.90;39.60
51613;DHT22;37694;51.748;14.326;2023-12-04T13:58:31;22.90;39.90
51613;DHT22;37694;51.748;14.326;2023-12-04T14:01:05;23.00;39.80
51613;DHT22;37694;51.748;14.326;2023-12-04T14:03:43;22.90;39.70
51613;DHT22;37694;51.748;14.326;2023-12-04T14:06:10;22.90;40.00
51613;DHT22;37694;51.748;14.326;2023-12-04T14:08:36;22.90;39.70
51613;DHT22;37694;51.748;14.326;2023-12-04T14:11:05;22.90;40.10
51613;DHT22;37694;51.748;14.326;2023-12-04T14:13:34;22.80;40.00
51613;DHT22;37694;51.748;14.326;2023-12-04T14:16:00;22.80;40.20
51613;DHT22;37694;51.748;14.326;2023-12-04T14:18:27;22.80;40.30
51613;DHT22;37694;51.748;14.326;2023-12-04T14:20:55;22.80;40.10
51613;DHT22;37694;51.748;14.326;2023-12-04T14:23:21;22.80;40.40
51613;DHT22;37694;51.748;14.326;2023-12-04T14:25:47;22.70;40.30
51613;DHT22;37694;51.748;14.326;2023-12-04T14:28:13;22.70;40.50
51613;DHT22;37694;51.748;14.326;2023-12-04T14:30:38;22.70;40.30
51613;DHT22;37694;51.748;14.326;2023-12-04T14:33:06;22.60;40.50
51613;DHT22;37694;51.748;14.326;2023-12-04T14:35:32;22.60;40.10
51613;DHT22;37694;51.748;14.326;2023-12-04T14:37:57;22.60;40.20
51613;DHT22;37694;51.748;14.326;2023-12-04T14:40:23;22.60;40.50
51613;DHT22;37694;51.748;14.326;2023-12-04T14:42:49;22.50;40.60
51613;DHT22;37694;51.748;14.326;2023-12-04T14:45:15;22.50;40.60
51613;DHT22;37694;51.748;14.326;2023-12-04T14:47:42;22.50;40.60
51613;DHT22;37694;51.748;14.326;2023-12-04T14:50:08;22.50;41.00
51613;DHT22;37694;51.748;14.326;2023-12-04T14:52:35;22.50;40.80
51613;DHT22;37694;51.748;14.326;2023-12-04T14:55:06;22.50;41.00
51613;DHT22;37694;51.748;14.326;2023-12-04T14:57:35;22.50;41.00
51613;DHT22;37694;51.748;14.326;2023-12-04T15:00:07;22.50;41.00
51613;DHT22;37694;51.748;14.326;2023-12-04T15:02:52;22.50;41.00
51613;DHT22;37694;51.748;14.326;2023-12-04T15:05:36;22.50;41.10
51613;DHT22;37694;51.748;14.326;2023-12-04T15:08:31;22.50;41.30
51613;DHT22;37694;51.748;14.326;2023-12-04T15:11:15;22.40;41.30
51613;DHT22;37694;51.748;14.326;2023-12-04T15:14:10;22.40;41.10
51613;DHT22;37694;51.748;14.326;2023-12-04T15:16:57;22.40;41.10